Time;durP1;ratioP1;P1;durP2;ratioP2;P2;SDS_P1;SDS_P2;PMS_P1;PMS_P2;Temp;Humidity;BMP_temperature;BMP_pressure;BME280_temperature;BME280_humidity;BME280_pressure;Samples;Min_cycle;Max_cycle;Signal;HPM_P1;HPM_P2
2021/09/19 00:00:00;;;;;;;;;;;;;;;17.52;73.04;100854.67;1902203;75;20119;-69
2021/09/19 00:02:28;;;;;;;;;;;;;;;17.49;73.34;100852.23;1902041;75;20145;-70
2021/09/19 00:04:56;;;;;;;;;;;;;;;17.48;73.38;100853.17;1901898;73;20163;-70
2021/09/19 00:07:23;;;;;;;;;;;;;;;17.48;73.31;100855.84;1902055;75;20115;-70
2021/09/19 00:09:51;;;;;;;;;;;;;;;17.46;73.37;100857.75;1902008;75;20382;-72
2021/09/19 00:12:19;;;;;;;;;;;;;;;17.45;74.01;100856.06;1902035;75;20601;-71
2021/09/19 00:14:47;;;;;;;;;;;;;;;17.43;75.03;100850.84;1902160;75;20119;-69
2021/09/19 00:17:17;;;;;;;;;;;;;;;17.41;75.15;100851.88;1902107;75;20119;-69
2021/09/19 00:19:45;;;;;;;;;;;;;;;17.39;75.17;100850.64;1902083;75;20115;-69
2021/09/19 00:22:13;;;;;;;;;;;;;;;17.37;75.10;100849.89;1902056;75;20123;-69
2021/09/19 00:24:41;;;;;;;;;;;;;;;17.39;75.21;100856.45;1901946;75;20149;-69
2021/09/19 00:27:09;;;;;;;;;;;;;;;17.39;76.04;100845.31;1902041;75;20107;-69
2021/09/19 00:29:36;;;;;;;;;;;;;;;17.39;76.96;100841.32;1902004;75;20174;-70
2021/09/19 00:32:05;;;;;;;;;;;;;;;17.40;77.19;100840.87;1901998;75;20119;-69
2021/09/19 00:34:32;;;;;;;;;;;;;;;17.40;77.41;100838.20;1902073;75;20111;-70
2021/09/19 00:37:00;;;;;;;;;;;;;;;17.41;77.23;100839.44;1901972;75;20146;-70
2021/09/19 00:39:28;;;;;;;;;;;;;;;17.42;77.08;100834.96;1902046;75;20145;-70
2021/09/19 00:41:56;;;;;;;;;;;;;;;17.44;77.21;100835.71;1902040;75;20200;-70
2021/09/19 00:44:26;;;;;;;;;;;;;;;17.46;76.97;100833.80;1902144;75;20145;-70
2021/09/19 00:46:54;;;;;;;;;;;;;;;17.47;76.87;100827.53;1902008;75;20107;-70
2021/09/19 00:49:23;;;;;;;;;;;;;;;17.48;76.79;100826.56;1902035;75;20145;-70
2021/09/19 00:51:52;;;;;;;;;;;;;;;17.48;76.67;100826.56;1902202;75;20107;-70
2021/09/19 00:54:21;;;;;;;;;;;;;;;17.49;76.61;100828.28;1902171;75;20107;-68
2021/09/19 00:56:50;;;;;;;;;;;;;;;17.49;76.73;100824.28;1902053;75;20377;-68
2021/09/19 00:59:20;;;;;;;;;;;;;;;17.49;76.40;100830.94;1902291;74;20194;-68
2021/09/19 01:01:51;;;;;;;;;;;;;;;17.48;76.53;100821.23;1902003;75;20417;-68
2021/09/19 01:04:19;;;;;;;;;;;;;;;17.48;76.74;100822.08;1901967;75;20186;-68
2021/09/19 01:06:47;;;;;;;;;;;;;;;17.48;76.75;100829.22;1920056;74;20110;-69
2021/09/19 01:09:16;;;;;;;;;;;;;;;17.47;76.52;100827.53;1921013;75;20118;-69
2021/09/19 01:11:44;;;;;;;;;;;;;;;17.46;76.65;100831.13;1921032;75;20118;-69
2021/09/19 01:14:13;;;;;;;;;;;;;;;17.47;76.55;100832.86;1921026;74;20161;-70
2021/09/19 01:16:41;;;;;;;;;;;;;;;17.47;76.33;100844.83;1920997;73;20118;-71
2021/09/19 01:19:14;;;;;;;;;;;;;;;17.47;76.05;100844.83;1920984;74;20118;-70
2021/09/19 01:21:41;;;;;;;;;;;;;;;17.49;76.50;100842.92;1921116;74;20118;-70
2021/09/19 01:24:09;;;;;;;;;;;;;;;17.49;76.31;100849.58;1921023;75;20115;-70
2021/09/19 01:26:37;;;;;;;;;;;;;;;17.50;75.96;100856.59;1920963;75;20384;-70
2021/09/19 01:29:06;;;;;;;;;;;;;;;17.49;75.83;100850.42;1920981;74;20118;-71
2021/09/19 01:31:34;;;;;;;;;;;;;;;17.50;75.74;100852.14;1921029;75;20150;-70
2021/09/19 01:34:02;;;;;;;;;;;;;;;17.50;75.56;100849.94;1921014;75;20148;-71
2021/09/19 01:36:31;;;;;;;;;;;;;;;17.50;75.48;100845.94;1921002;75;20146;-71
2021/09/19 01:38:59;;;;;;;;;;;;;;;17.51;75.53;100835.68;1921027;74;20114;-71
2021/09/19 01:41:27;;;;;;;;;;;;;;;17.52;75.76;100840.03;1921015;75;20149;-71
2021/09/19 01:43:55;;;;;;;;;;;;;;;17.52;76.07;100847.56;1920915;74;20115;-71
2021/09/19 01:46:23;;;;;;;;;;;;;;;17.55;76.37;100841.17;1921001;75;20114;-70
2021/09/19 01:48:50;;;;;;;;;;;;;;;17.57;76.57;100835.27;1921005;75;20118;-71
2021/09/19 01:51:18;;;;;;;;;;;;;;;17.58;76.78;100840.09;1921118;75;20145;-69
2021/09/19 01:53:48;;;;;;;;;;;;;;;17.58;76.74;100838.31;1921019;75;20166;-70
2021/09/19 01:56:16;;;;;;;;;;;;;;;17.58;76.75;100840.97;1920929;74;20427;-70
2021/09/19 01:58:45;;;;;;;;;;;;;;;17.59;76.77;100831.17;1921019;74;20106;-69
2021/09/19 02:01:13;;;;;;;;;;;;;;;17.62;76.98;100830.48;1921039;73;20118;-71
2021/09/19 02:03:41;;;;;;;;;;;;;;;17.64;77.07;100836.56;1920973;75;20110;-70
2021/09/19 02:06:10;;;;;;;;;;;;;;;17.66;76.96;100835.98;1912650;74;20120;-70
2021/09/19 02:08:38;;;;;;;;;;;;;;;17.69;77.02;100833.11;1901989;75;20456;-71
2021/09/19 02:11:10;;;;;;;;;;;;;;;17.70;76.90;100830.81;1901930;75;20170;-70
2021/09/19 02:13:38;;;;;;;;;;;;;;;17.74;76.92;100823.02;1902026;75;20099;-70
2021/09/19 02:16:08;;;;;;;;;;;;;;;17.75;77.11;100822.04;1902006;75;20205;-69
2021/09/19 02:18:36;;;;;;;;;;;;;;;17.75;77.38;100812.72;1902121;75;20401;-70
2021/09/19 02:21:05;;;;;;;;;;;;;;;17.77;77.82;100807.78;1901962;75;20099;-69
2021/09/19 02:23:33;;;;;;;;;;;;;;;17.77;77.92;100811.77;1901937;75;20392;-70
2021/09/19 02:26:01;;;;;;;;;;;;;;;17.77;77.81;100817.09;1901962;75;20111;-71
2021/09/19 02:28:29;;;;;;;;;;;;;;;17.78;77.67;100817.45;1902007;75;20111;-70
2021/09/19 02:30:57;;;;;;;;;;;;;;;17.79;77.61;100816.52;1901991;75;20174;-69
2021/09/19 02:33:25;;;;;;;;;;;;;;;17.80;78.00;100812.42;1902011;75;20111;-68
2021/09/19 02:35:53;;;;;;;;;;;;;;;17.83;78.04;100810.02;1901957;75;20119;-71
2021/09/19 02:38:21;;;;;;;;;;;;;;;17.85;78.50;100806.80;1901963;75;20111;-70
2021/09/19 02:40:51;;;;;;;;;;;;;;;17.88;78.39;100809.26;1902020;75;20119;-70
2021/09/19 02:43:19;;;;;;;;;;;;;;;17.88;78.19;100815.91;1901867;75;20107;-69
2021/09/19 02:45:47;;;;;;;;;;;;;;;17.89;77.99;100812.28;1901967;75;20115;-70
2021/09/19 02:48:14;;;;;;;;;;;;;;;17.89;77.99;100811.82;1901946;75;20142;-68
2021/09/19 02:50:43;;;;;;;;;;;;;;;17.90;77.94;100810.00;1902114;75;20123;-69
2021/09/19 02:53:10;;;;;;;;;;;;;;;17.89;77.74;100809.61;1902002;75;20115;-70
2021/09/19 02:55:38;;;;;;;;;;;;;;;17.86;77.54;100809.36;1901977;75;20194;-69
2021/09/19 02:58:06;;;;;;;;;;;;;;;17.84;77.57;100807.73;1901955;75;20145;-69
2021/09/19 03:00:34;;;;;;;;;;;;;;;17.81;77.70;100799.95;1902066;75;20119;-67
2021/09/19 03:03:02;;;;;;;;;;;;;;;17.75;77.83;100794.56;1901815;75;20120;-70
2021/09/19 03:05:30;;;;;;;;;;;;;;;17.68;78.22;100804.77;1902037;75;20111;-68
2021/09/19 03:07:58;;;;;;;;;;;;;;;17.61;78.05;100802.63;1901996;74;20111;-69
2021/09/19 03:10:26;;;;;;;;;;;;;;;17.54;77.86;100800.88;1901960;75;20123;-68
2021/09/19 03:12:54;;;;;;;;;;;;;;;17.48;77.56;100792.80;1901970;75;20145;-67
2021/09/19 03:15:22;;;;;;;;;;;;;;;17.47;77.85;100791.59;1901933;75;20107;-69
2021/09/19 03:17:50;;;;;;;;;;;;;;;17.45;78.01;100798.34;1901898;75;20224;-69
2021/09/19 03:20:18;;;;;;;;;;;;;;;17.43;78.17;100795.39;1901974;75;20167;-69
2021/09/19 03:22:46;;;;;;;;;;;;;;;17.43;78.10;100794.06;1901959;75;20116;-69
2021/09/19 03:25:14;;;;;;;;;;;;;;;17.45;78.07;100792.18;1901893;75;20119;-70
2021/09/19 03:27:43;;;;;;;;;;;;;;;17.46;78.39;100793.87;1902052;75;20111;-70
2021/09/19 03:30:12;;;;;;;;;;;;;;;17.49;78.62;100797.66;1902000;75;20154;-70
2021/09/19 03:32:40;;;;;;;;;;;;;;;17.48;78.26;100798.61;1902159;75;20381;-71
2021/09/19 03:35:08;;;;;;;;;;;;;;;17.49;78.32;100800.33;1902096;75;20163;-70
2021/09/19 03:37:36;;;;;;;;;;;;;;;17.49;78.47;100793.19;1902089;75;20119;-70
2021/09/19 03:40:05;;;;;;;;;;;;;;;17.52;78.95;100804.09;1902080;75;20107;-73
2021/09/19 03:42:33;;;;;;;;;;;;;;;17.53;79.13;100808.48;1901978;75;20396;-72
2021/09/19 03:45:01;;;;;;;;;;;;;;;17.54;79.24;100807.53;1902052;75;20150;-69
2021/09/19 03:47:29;;;;;;;;;;;;;;;17.55;79.08;100803.89;1902056;75;20107;-69
2021/09/19 03:49:57;;;;;;;;;;;;;;;17.60;79.35;100816.42;1902066;75;20107;-69
2021/09/19 03:52:25;;;;;;;;;;;;;;;17.62;79.45;100814.52;1902055;75;20162;-70
2021/09/19 03:54:52;;;;;;;;;;;;;;;17.65;79.52;100823.63;1902034;75;20107;-71
2021/09/19 03:57:20;;;;;;;;;;;;;;;17.68;79.41;100832.73;1901569;75;20197;-65
2021/09/19 03:59:48;;;;;;;;;;;;;;;17.67;79.30;100829.70;1901624;75;20163;-64
2021/09/19 04:02:16;;;;;;;;;;;;;;;17.66;79.37;100826.66;1903381;74;20142;-62
2021/09/19 04:04:44;;;;;;;;;;;;;;;17.66;79.35;100826.66;1903910;75;20121;-64
2021/09/19 04:07:11;;;;;;;;;;;;;;;17.66;79.20;100829.80;1932639;73;20104;-66
2021/09/19 04:09:39;;;;;;;;;;;;;;;17.64;78.99;100837.89;1952880;73;20142;-65
2021/09/19 04:12:07;;;;;;;;;;;;;;;17.63;78.86;100845.52;1955294;73;20171;-65
2021/09/19 04:14:35;;;;;;;;;;;;;;;17.63;78.69;100860.16;1956032;73;20116;-64
2021/09/19 04:17:03;;;;;;;;;;;;;;;17.63;78.49;100868.16;1956770;73;20138;-66
2021/09/19 04:19:31;;;;;;;;;;;;;;;17.65;78.29;100872.02;1956794;73;20116;-66
2021/09/19 04:21:58;;;;;;;;;;;;;;;17.63;78.13;100878.80;1956834;73;20147;-70
2021/09/19 04:24:26;;;;;;;;;;;;;;;17.63;78.00;100881.47;1956724;73;20171;-72
2021/09/19 04:26:54;;;;;;;;;;;;;;;17.64;78.06;100875.16;1956790;73;20112;-68
2021/09/19 04:29:22;;;;;;;;;;;;;;;17.65;78.65;100872.02;1956826;73;20213;-66
2021/09/19 04:31:50;;;;;;;;;;;;;;;17.62;78.37;100869.09;1956880;73;20116;-63
2021/09/19 04:34:18;;;;;;;;;;;;;;;17.62;77.96;100868.25;1956929;73;20293;-63
2021/09/19 04:36:45;;;;;;;;;;;;;;;17.59;77.78;100874.61;1956741;73;20100;-64
2021/09/19 04:39:13;;;;;;;;;;;;;;;17.60;77.69;100870.16;1956898;73;20120;-70
2021/09/19 04:41:41;;;;;;;;;;;;;;;17.57;77.67;100865.88;1956808;73;20099;-64
2021/09/19 04:44:09;;;;;;;;;;;;;;;17.52;77.77;100867.98;1956908;73;20146;-65
2021/09/19 04:46:37;;;;;;;;;;;;;;;17.50;78.02;100868.11;1956752;73;20108;-65
2021/09/19 04:49:04;;;;;;;;;;;;;;;17.49;78.35;100868.20;1956857;73;20116;-63
2021/09/19 04:51:32;;;;;;;;;;;;;;;17.50;78.48;100869.45;1956682;73;20100;-64
2021/09/19 04:54:00;;;;;;;;;;;;;;;17.52;78.54;100869.31;1956736;73;20153;-64
2021/09/19 04:56:28;;;;;;;;;;;;;;;17.54;78.35;100874.09;1956812;73;20155;-62
2021/09/19 04:58:56;;;;;;;;;;;;;;;17.59;78.36;100874.61;1956823;73;20142;-66
2021/09/19 05:01:24;;;;;;;;;;;;;;;17.63;78.28;100877.92;1956772;73;20146;-62
2021/09/19 05:03:52;;;;;;;;;;;;;;;17.67;78.13;100865.66;1956721;73;20104;-66
2021/09/19 05:06:20;;;;;;;;;;;;;;;17.68;78.00;100860.69;1956800;73;20108;-63
2021/09/19 05:08:47;;;;;;;;;;;;;;;17.70;77.87;100864.09;1941624;73;20121;-63
2021/09/19 05:11:16;;;;;;;;;;;;;;;17.73;77.77;100862.56;1937112;74;20151;-65
2021/09/19 05:13:43;;;;;;;;;;;;;;;17.73;77.73;100857.24;1937137;74;20101;-65
2021/09/19 05:16:11;;;;;;;;;;;;;;;17.76;77.77;100862.83;1937041;74;20139;-67
2021/09/19 05:18:39;;;;;;;;;;;;;;;17.81;77.79;100867.86;1936980;74;20147;-68
2021/09/19 05:21:07;;;;;;;;;;;;;;;17.86;78.24;100865.78;1928062;74;20103;-67
2021/09/19 05:23:34;;;;;;;;;;;;;;;17.91;78.21;100866.33;1902080;75;20145;-65
2021/09/19 05:26:02;;;;;;;;;;;;;;;17.97;78.37;100864.56;1909960;74;20112;-65
2021/09/19 05:28:30;;;;;;;;;;;;;;;18.03;78.69;100858.81;1937075;74;20117;-64
2021/09/19 05:30:58;;;;;;;;;;;;;;;18.08;78.96;100853.19;1930186;74;20115;-63
2021/09/19 05:33:27;;;;;;;;;;;;;;;18.13;79.04;100860.39;1902080;75;20194;-64
2021/09/19 05:35:55;;;;;;;;;;;;;;;18.18;79.24;100854.72;1907813;74;20136;-65
2021/09/19 05:38:22;;;;;;;;;;;;;;;18.26;79.51;100863.03;1937086;74;20117;-63
2021/09/19 05:40:50;;;;;;;;;;;;;;;18.33;79.66;100865.19;1937122;73;20105;-63
2021/09/19 05:43:18;;;;;;;;;;;;;;;18.44;79.92;100866.23;1937111;74;20284;-65
2021/09/19 05:45:46;;;;;;;;;;;;;;;18.54;79.88;100871.80;1933243;74;20105;-64
2021/09/19 05:48:14;;;;;;;;;;;;;;;18.64;79.67;100870.16;1903868;75;20115;-65
2021/09/19 05:50:41;;;;;;;;;;;;;;;18.76;79.56;100870.63;1906538;74;20115;-64
2021/09/19 05:53:09;;;;;;;;;;;;;;;18.89;79.24;100867.48;1937090;74;20190;-63
2021/09/19 05:55:37;;;;;;;;;;;;;;;19.04;78.98;100865.52;1937067;74;20117;-64
2021/09/19 05:58:05;;;;;;;;;;;;;;;19.17;78.76;100869.48;1937066;74;20113;-67
2021/09/19 06:00:33;;;;;;;;;;;;;;;19.32;78.62;100863.98;1936306;74;20223;-62
2021/09/19 06:03:01;;;;;;;;;;;;;;;19.41;78.65;100863.30;1901975;75;20119;-61
2021/09/19 06:05:29;;;;;;;;;;;;;;;19.50;78.62;100867.95;1901948;75;20111;-64
2021/09/19 06:07:56;;;;;;;;;;;;;;;19.59;78.53;100867.27;1940275;73;20112;-65
2021/09/19 06:10:24;;;;;;;;;;;;;;;19.71;78.51;100864.64;1956779;73;20108;-62
2021/09/19 06:12:52;;;;;;;;;;;;;;;19.84;78.51;100860.09;1921562;73;20153;-62
2021/09/19 06:15:20;;;;;;;;;;;;;;;20.03;78.38;100867.08;1920891;75;20114;-63
2021/09/19 06:17:47;;;;;;;;;;;;;;;20.21;77.99;100855.92;1954997;73;20116;-62
2021/09/19 06:20:15;;;;;;;;;;;;;;;20.30;77.71;100863.22;1956774;73;20139;-65
2021/09/19 06:22:43;;;;;;;;;;;;;;;20.33;77.45;100860.31;1957517;72;20108;-68
2021/09/19 06:25:11;;;;;;;;;;;;;;;20.39;77.21;100859.83;1957385;73;20108;-65
2021/09/19 06:27:39;;;;;;;;;;;;;;;20.52;76.90;100858.88;1926385;73;20189;-65
2021/09/19 06:30:08;;;;;;;;;;;;;;;20.74;76.64;100856.22;1922868;75;20142;-64
2021/09/19 06:32:37;;;;;;;;;;;;;;;21.12;76.11;100853.61;1952436;73;20138;-64
2021/09/19 06:35:05;;;;;;;;;;;;;;;22.02;75.17;100850.20;1956700;73;20108;-63
2021/09/19 06:37:33;;;;;;;;;;;;;;;22.85;73.34;100849.69;1956692;73;20108;-68
2021/09/19 06:40:01;;;;;;;;;;;;;;;23.46;71.55;100844.66;1956607;73;20104;-69
2021/09/19 06:42:29;;;;;;;;;;;;;;;23.72;70.48;100848.98;1927181;73;20173;-70
2021/09/19 06:44:57;;;;;;;;;;;;;;;23.49;69.44;100845.22;1920930;75;20122;-67
2021/09/19 06:47:25;;;;;;;;;;;;;;;23.71;67.50;100843.23;1949321;73;20147;-65
2021/09/19 06:49:53;;;;;;;;;;;;;;;24.15;66.13;100834.20;1956731;73;20116;-64
2021/09/19 06:52:21;;;;;;;;;;;;;;;23.71;66.67;100827.11;1929306;73;20115;-65
2021/09/19 06:54:49;;;;;;;;;;;;;;;23.28;67.35;100839.16;1921105;75;20232;-65
2021/09/19 06:57:17;;;;;;;;;;;;;;;22.87;68.03;100840.53;1947288;73;20198;-68
2021/09/19 06:59:44;;;;;;;;;;;;;;;22.65;68.77;100840.25;1956718;73;20116;-71
2021/09/19 07:02:12;;;;;;;;;;;;;;;22.52;69.26;100840.48;1931327;73;20114;-68
2021/09/19 07:04:40;;;;;;;;;;;;;;;22.35;69.50;100848.67;1920992;75;20200;-68
2021/09/19 07:07:08;;;;;;;;;;;;;;;22.23;70.11;100851.04;1945190;73;20142;-69
2021/09/19 07:09:36;;;;;;;;;;;;;;;22.01;70.47;100858.74;1956917;73;20120;-71
2021/09/19 07:12:04;;;;;;;;;;;;;;;21.73;71.05;100868.28;1933653;73;20149;-67
2021/09/19 07:14:32;;;;;;;;;;;;;;;21.51;71.34;100873.25;1921044;74;20118;-65
2021/09/19 07:17:00;;;;;;;;;;;;;;;21.32;71.68;100889.94;1943221;73;20159;-64
2021/09/19 07:19:28;;;;;;;;;;;;;;;21.08;72.81;100900.36;1956778;73;20124;-65
2021/09/19 07:21:56;;;;;;;;;;;;;;;20.55;74.59;100897.42;1935645;73;20142;-66
2021/09/19 07:24:23;;;;;;;;;;;;;;;19.89;76.60;100883.80;1921093;75;20118;-66
2021/09/19 07:26:51;;;;;;;;;;;;;;;19.37;77.79;100892.05;1941078;73;20116;-65
2021/09/19 07:29:19;;;;;;;;;;;;;;;18.89;79.47;100888.83;1956799;73;20243;-66
2021/09/19 07:31:50;;;;;;;;;;;;;;;18.62;80.00;100893.42;1937927;73;20103;-68
2021/09/19 07:34:17;;;;;;;;;;;;;;;18.46;80.81;100890.51;1920684;75;20119;-66
2021/09/19 07:36:46;;;;;;;;;;;;;;;18.40;81.11;100890.91;1939465;73;20116;-65
2021/09/19 07:39:14;;;;;;;;;;;;;;;18.46;81.40;100882.97;1925376;73;20142;-65
2021/09/19 07:41:42;;;;;;;;;;;;;;;18.58;81.35;100887.45;1939073;73;20114;-65
2021/09/19 07:44:10;;;;;;;;;;;;;;;18.78;80.94;100877.20;1921036;75;20166;-66
2021/09/19 07:46:38;;;;;;;;;;;;;;;18.98;80.51;100875.31;1937623;73;20100;-66
2021/09/19 07:49:06;;;;;;;;;;;;;;;19.18;80.30;100874.33;1956928;73;20374;-66
2021/09/19 07:51:34;;;;;;;;;;;;;;;19.28;80.18;100873.54;1941171;73;20189;-65
2021/09/19 07:54:02;;;;;;;;;;;;;;;19.48;80.09;100868.06;1921082;75;20141;-64
2021/09/19 07:56:30;;;;;;;;;;;;;;;19.73;79.93;100861.39;1935507;73;20193;-64
2021/09/19 07:58:57;;;;;;;;;;;;;;;20.19;79.25;100862.72;1956840;73;20108;-64
2021/09/19 08:01:25;;;;;;;;;;;;;;;20.36;79.24;100870.78;1943241;73;20190;-65
2021/09/19 08:03:53;;;;;;;;;;;;;;;20.36;79.73;100872.13;1920908;75;20114;-70
2021/09/19 08:06:25;;;;;;;;;;;;;;;20.33;79.55;100868.84;1921136;75;20102;-68
2021/09/19 08:08:51;;;;;;;;;;;;;;;20.32;79.80;100865.78;1920681;75;20173;-68
2021/09/19 08:11:19;;;;;;;;;;;;;;;20.29;80.00;100869.56;1902266;75;20127;-67
2021/09/19 08:13:47;;;;;;;;;;;;;;;20.22;80.05;100871.00;1901966;75;20157;-67
2021/09/19 08:16:18;;;;;;;;;;;;;;;20.21;80.38;100865.28;1902045;75;20104;-66
2021/09/19 08:18:46;;;;;;;;;;;;;;;20.16;80.31;100868.78;1902077;75;20146;-66
2021/09/19 08:21:13;;;;;;;;;;;;;;;20.14;80.54;100873.40;1902052;75;20119;-66
2021/09/19 08:23:41;;;;;;;;;;;;;;;20.15;80.45;100875.12;1902054;75;20118;-66
2021/09/19 08:26:09;;;;;;;;;;;;;;;20.16;80.47;100865.65;1902001;75;20119;-66
2021/09/19 08:28:37;;;;;;;;;;;;;;;20.21;80.38;100870.16;1902029;75;20193;-66
2021/09/19 08:31:05;;;;;;;;;;;;;;;20.27;80.29;100872.84;1902084;75;20119;-66
2021/09/19 08:33:32;;;;;;;;;;;;;;;20.36;80.13;100869.45;1902049;75;20103;-66
2021/09/19 08:36:00;;;;;;;;;;;;;;;20.43;80.04;100871.98;1902027;75;20209;-67
2021/09/19 08:38:32;;;;;;;;;;;;;;;20.48;80.23;100866.78;1902006;75;20121;-67
2021/09/19 08:40:58;;;;;;;;;;;;;;;20.54;80.14;100871.63;1901722;74;20107;-69
2021/09/19 08:43:26;;;;;;;;;;;;;;;20.62;79.95;100870.59;1902032;75;20111;-68
2021/09/19 08:45:54;;;;;;;;;;;;;;;20.71;79.86;100863.63;1901997;75;20119;-68
2021/09/19 08:48:22;;;;;;;;;;;;;;;20.77;79.90;100854.64;1902006;75;20119;-68
2021/09/19 08:50:51;;;;;;;;;;;;;;;20.85;79.68;100860.70;1902006;75;20540;-69
2021/09/19 08:53:19;;;;;;;;;;;;;;;20.93;79.68;100860.92;1901932;75;20115;-68
2021/09/19 08:55:48;;;;;;;;;;;;;;;21.05;79.42;100858.26;1902005;75;20115;-68
2021/09/19 08:58:16;;;;;;;;;;;;;;;21.26;79.11;100850.28;1902140;75;20099;-68
2021/09/19 09:00:48;;;;;;;;;;;;;;;22.00;78.00;100849.48;1901984;75;20178;-68
2021/09/19 09:03:15;;;;;;;;;;;;;;;22.61;76.89;100850.91;1902038;74;20186;-67
2021/09/19 09:05:43;;;;;;;;;;;;;;;22.71;76.25;100849.09;1901985;75;20149;-68
2021/09/19 09:08:11;;;;;;;;;;;;;;;22.64;75.99;100854.64;1901957;75;20186;-67
2021/09/19 09:10:46;;;;;;;;;;;;;;;22.83;75.29;100854.35;1901909;74;20119;-68
2021/09/19 09:13:15;;;;;;;;;;;;;;;23.09;74.65;100850.22;1929375;74;20357;-68
2021/09/19 09:15:47;;;;;;;;;;;;;;;23.59;73.91;100847.93;1904150;73;20539;-66
2021/09/19 09:18:17;;;;;;;;;;;;;;;23.86;73.30;100843.67;1936950;74;20401;-66
2021/09/19 09:20:52;;;;;;;;;;;;;;;24.47;72.77;100845.06;1938943;73;20117;-66
2021/09/19 09:23:24;;;;;;;;;;;;;;;24.37;70.09;100842.92;1937032;74;20151;-68
2021/09/19 09:26:09;;;;;;;;;;;;;;;24.02;69.01;100835.87;1904295;74;20255;-67
2021/09/19 09:28:45;;;;;;;;;;;;;;;23.76;69.58;100838.29;1903771;75;20149;-66
2021/09/19 09:31:14;;;;;;;;;;;;;;;23.47;69.78;100841.83;1904040;74;20107;-64
2021/09/19 09:33:43;;;;;;;;;;;;;;;23.35;70.05;100841.63;1903889;75;20149;-62
2021/09/19 09:36:11;;;;;;;;;;;;;;;23.17;68.72;100841.97;1920777;73;20162;-61
2021/09/19 09:38:39;;;;;;;;;;;;;;;23.01;70.89;100839.78;1971718;73;20114;-62
2021/09/19 09:41:08;;;;;;;;;;;;;;;22.85;70.86;100838.95;1958414;73;20116;-61
2021/09/19 09:43:35;;;;;;;;;;;;;;;22.64;70.46;100851.95;1918953;75;20445;-65
2021/09/19 09:46:10;;;;;;;;;;;;;;;22.51;70.10;100854.03;1923133;74;20105;-64
2021/09/19 09:48:41;;;;;;;;;;;;;;;22.42;70.52;100852.16;1937011;74;20383;-63
2021/09/19 09:51:23;;;;;;;;;;;;;;;22.33;70.44;100861.34;1937129;74;20140;-64
2021/09/19 09:54:01;;;;;;;;;;;;;;;22.29;69.62;100867.97;1937013;74;20172;-64
2021/09/19 09:56:29;;;;;;;;;;;;;;;22.20;69.86;100856.66;1922887;74;20395;-64
2021/09/19 09:58:57;;;;;;;;;;;;;;;22.11;68.53;100860.13;1901982;75;20119;-67
2021/09/19 10:01:25;;;;;;;;;;;;;;;21.99;67.94;100855.34;1901999;75;20119;-66
2021/09/19 10:03:53;;;;;;;;;;;;;;;21.90;68.47;100859.66;1901972;75;20119;-66
2021/09/19 10:06:21;;;;;;;;;;;;;;;21.85;67.97;100855.16;1901950;75;20189;-65
2021/09/19 10:08:50;;;;;;;;;;;;;;;21.81;68.21;100845.69;1901982;75;20115;-65
2021/09/19 10:11:18;;;;;;;;;;;;;;;21.81;67.71;100853.73;1901941;74;20115;-66
2021/09/19 10:13:46;;;;;;;;;;;;;;;21.80;68.20;100848.03;1902011;75;20111;-65
2021/09/19 10:16:16;;;;;;;;;;;;;;;21.80;68.21;100844.02;1901966;75;20123;-66
2021/09/19 10:18:49;;;;;;;;;;;;;;;21.82;68.00;100850.09;1901959;75;20186;-66
2021/09/19 10:21:18;;;;;;;;;;;;;;;21.81;67.76;100849.71;1901988;75;20115;-67
2021/09/19 10:23:47;;;;;;;;;;;;;;;21.80;68.13;100860.09;1902023;75;20119;-66
2021/09/19 10:26:18;;;;;;;;;;;;;;;21.76;68.21;100857.28;1902033;75;20119;-66
2021/09/19 10:28:48;;;;;;;;;;;;;;;21.75;68.18;100855.10;1902248;74;20122;-66
2021/09/19 10:31:20;;;;;;;;;;;;;;;21.76;67.73;100855.48;1901896;75;20107;-66
2021/09/19 10:33:59;;;;;;;;;;;;;;;21.79;67.07;100849.84;1902012;75;20111;-66
2021/09/19 10:36:37;;;;;;;;;;;;;;;21.83;66.53;100849.09;1902071;75;20357;-65
2021/09/19 10:39:12;;;;;;;;;;;;;;;21.87;66.55;100854.54;1901954;75;20142;-66
2021/09/19 10:41:41;;;;;;;;;;;;;;;21.89;67.11;100852.61;1902156;75;20165;-66
2021/09/19 10:44:09;;;;;;;;;;;;;;;21.89;67.49;100859.31;1901717;74;20119;-66
2021/09/19 10:46:38;;;;;;;;;;;;;;;21.93;67.73;100855.38;1901962;75;20119;-66
2021/09/19 10:49:10;;;;;;;;;;;;;;;21.94;67.76;100854.37;1901953;75;20228;-67
2021/09/19 10:51:55;;;;;;;;;;;;;;;22.03;68.04;100858.62;1901921;75;20119;-66
2021/09/19 10:54:41;;;;;;;;;;;;;;;22.10;68.22;100858.45;1901352;75;20111;-66
2021/09/19 10:57:19;;;;;;;;;;;;;;;22.10;68.24;100853.92;1901805;75;20119;-66
2021/09/19 11:00:05;;;;;;;;;;;;;;;22.11;68.38;100849.41;1901987;75;20103;-66
2021/09/19 11:02:32;;;;;;;;;;;;;;;22.02;68.30;100863.60;1901980;75;20142;-65
2021/09/19 11:05:18;;;;;;;;;;;;;;;21.90;68.72;100855.62;1901938;75;20111;-65
2021/09/19 11:07:46;;;;;;;;;;;;;;;21.78;69.03;100863.36;1901967;75;20119;-65
2021/09/19 11:10:14;;;;;;;;;;;;;;;21.69;69.48;100869.50;1901931;75;20107;-65
2021/09/19 11:12:43;;;;;;;;;;;;;;;21.61;70.58;100873.33;1918251;74;20208;-65
2021/09/19 11:15:14;;;;;;;;;;;;;;;21.51;71.17;100871.41;1920931;73;20150;-65
2021/09/19 11:17:45;;;;;;;;;;;;;;;21.40;71.76;100858.88;1921006;75;20118;-65
2021/09/19 11:20:21;;;;;;;;;;;;;;;21.39;71.47;100846.47;1920941;74;20110;-65
2021/09/19 11:22:45;;;;;;;;;;;;;;;21.34;71.62;100844.66;1918967;74;20106;-65
2021/09/19 11:25:14;;;;;;;;;;;;;;;21.33;71.73;100840.77;1920946;75;20113;-64
2021/09/19 11:27:43;;;;;;;;;;;;;;;21.40;71.59;100838.78;1920817;75;20114;-65
2021/09/19 11:30:12;;;;;;;;;;;;;;;21.45;71.62;100842.47;1920875;75;20454;-65
2021/09/19 11:32:40;;;;;;;;;;;;;;;21.45;71.83;100844.27;1920879;75;20122;-65
2021/09/19 11:35:08;;;;;;;;;;;;;;;21.46;71.91;100844.15;1920917;75;20114;-65
2021/09/19 11:37:36;;;;;;;;;;;;;;;21.51;72.02;100849.98;1920857;75;20114;-65
2021/09/19 11:40:09;;;;;;;;;;;;;;;21.50;72.43;100853.63;1920878;75;20102;-65
2021/09/19 11:42:36;;;;;;;;;;;;;;;21.47;71.78;100818.20;1920854;75;20122;-65
2021/09/19 11:45:05;;;;;;;;;;;;;;;21.42;71.32;100852.05;1921085;75;20149;-65
2021/09/19 11:47:33;;;;;;;;;;;;;;;21.40;71.03;100866.06;1921014;73;20122;-65
2021/09/19 11:50:02;;;;;;;;;;;;;;;21.39;70.99;100865.69;1920977;75;20141;-65
2021/09/19 11:52:30;;;;;;;;;;;;;;;21.37;71.51;100868.48;1921068;75;20115;-65
2021/09/19 11:54:57;;;;;;;;;;;;;;;21.37;71.32;100873.84;1920985;75;20103;-65
2021/09/19 11:57:25;;;;;;;;;;;;;;;21.38;71.37;100881.41;1921026;75;20118;-65
2021/09/19 11:59:53;;;;;;;;;;;;;;;21.36;70.57;100880.69;1921035;75;20108;-65
2021/09/19 12:02:25;;;;;;;;;;;;;;;21.30;69.54;100878.50;1921041;75;20601;-65
2021/09/19 12:04:50;;;;;;;;;;;;;;;21.26;69.86;100881.08;1920385;75;20118;-65
2021/09/19 12:07:18;;;;;;;;;;;;;;;21.25;69.47;100876.68;1920363;75;20169;-62
2021/09/19 12:09:50;;;;;;;;;;;;;;;21.26;69.69;100878.39;1920970;75;20149;-71
2021/09/19 12:12:19;;;;;;;;;;;;;;;21.19;68.14;100873.55;1941928;73;20387;-64
2021/09/19 12:14:48;;;;;;;;;;;;;;;21.17;68.49;100873.30;1944412;74;20409;-59
2021/09/19 12:17:16;;;;;;;;;;;;;;;21.15;68.66;100875.25;1928726;74;20108;-61
2021/09/19 12:19:48;;;;;;;;;;;;;;;21.11;68.86;100869.30;1944185;74;20153;-61
2021/09/19 12:22:22;;;;;;;;;;;;;;;21.12;68.46;100875.03;1918361;74;20111;-63
2021/09/19 12:24:55;;;;;;;;;;;;;;;21.09;68.71;100876.61;1909046;75;20195;-63
2021/09/19 12:27:24;;;;;;;;;;;;;;;21.10;68.76;100866.27;1936461;74;20117;-67
2021/09/19 12:29:59;;;;;;;;;;;;;;;21.14;68.81;100862.86;1944348;74;20210;-66
2021/09/19 12:32:41;;;;;;;;;;;;;;;21.18;68.66;100870.50;1915533;74;20329;-66
2021/09/19 12:35:16;;;;;;;;;;;;;;;21.13;67.92;100861.98;1909076;74;20114;-63
2021/09/19 12:37:45;;;;;;;;;;;;;;;21.09;68.06;100859.70;1941710;74;20117;-65
2021/09/19 12:40:15;;;;;;;;;;;;;;;21.05;68.26;100855.08;1944265;74;20108;-65
2021/09/19 12:42:43;;;;;;;;;;;;;;;20.98;67.68;100858.73;1912058;74;20459;-66